createdAt,value
2018-09-22T00:02:12.456Z,86.50
2018-09-22T00:04:41.470Z,86.50
2018-09-22T00:07:10.480Z,87.10
2018-09-22T00:09:39.544Z,86.20
2018-09-22T00:12:08.577Z,86.50
2018-09-22T00:14:37.597Z,86.60
2018-09-22T00:17:06.750Z,86.50
2018-09-22T00:19:35.823Z,87.30
2018-09-22T00:22:04.860Z,86.50
2018-09-22T00:24:33.853Z,86.40
2018-09-22T00:27:02.867Z,86.30
2018-09-22T00:29:31.873Z,86.30
2018-09-22T00:32:00.890Z,86.70
2018-09-22T00:34:29.883Z,86.50
2018-09-22T00:36:58.920Z,86.30
2018-09-22T00:39:27.942Z,86.70
2018-09-22T00:41:57.183Z,87.30
2018-09-22T00:44:26.269Z,87.70
2018-09-22T00:46:55.339Z,87.90
2018-09-22T00:49:24.385Z,88.40
2018-09-22T00:51:53.473Z,89.80
2018-09-22T00:54:22.501Z,89.00
2018-09-22T00:56:51.530Z,89.30
2018-09-22T00:59:20.517Z,89.10
2018-09-22T01:01:49.768Z,89.60
2018-09-22T01:04:18.799Z,89.60
2018-09-22T01:06:47.829Z,89.70
2018-09-22T01:09:17.194Z,89.80
2018-09-22T01:11:46.220Z,90.20
2018-09-22T01:14:15.301Z,90.30
2018-09-22T01:16:44.368Z,90.20
2018-09-22T01:19:13.402Z,90.10
2018-09-22T01:21:42.788Z,90.60
2018-09-22T01:24:11.795Z,90.70
2018-09-22T01:26:40.993Z,90.70
2018-09-22T01:29:14.439Z,90.90
2018-09-22T01:31:43.937Z,91.20
2018-09-22T01:34:13.171Z,91.20
2018-09-22T01:36:43.065Z,91.20
2018-09-22T01:39:12.286Z,90.90
2018-09-22T01:41:42.074Z,90.80
2018-09-22T01:44:11.103Z,90.90
2018-09-22T01:46:40.133Z,90.90
2018-09-22T01:49:09.504Z,90.80
2018-09-22T01:51:38.558Z,91.20
2018-09-22T01:54:08.269Z,90.90
2018-09-22T01:56:37.260Z,91.20
2018-09-22T01:59:06.302Z,91.20
2018-09-22T02:01:35.305Z,91.00
2018-09-22T02:04:04.370Z,91.10
2018-09-22T02:06:33.440Z,91.20
2018-09-22T02:09:02.495Z,91.30
2018-09-22T02:11:31.581Z,91.40
2018-09-22T02:14:00.585Z,91.40
2018-09-22T02:16:29.618Z,91.50
2018-09-22T02:18:58.884Z,91.80
2018-09-22T02:21:27.909Z,92.30
2018-09-22T02:23:56.970Z,92.10
2018-09-22T02:26:26.001Z,92.00
2018-09-22T02:28:55.048Z,92.10
2018-09-22T02:31:24.056Z,92.10
2018-09-22T02:33:53.113Z,91.90
2018-09-22T02:36:22.127Z,92.00
2018-09-22T02:38:51.151Z,92.40
2018-09-22T02:41:20.405Z,92.50
2018-09-22T02:43:49.645Z,92.50
2018-09-22T02:46:18.678Z,92.40
2018-09-22T02:48:47.672Z,92.40
2018-09-22T02:51:16.729Z,92.30
2018-09-22T02:53:45.739Z,92.30
2018-09-22T02:56:14.820Z,92.20
2018-09-22T02:58:43.868Z,92.30
2018-09-22T03:01:12.889Z,92.30
2018-09-22T03:03:41.974Z,92.30
2018-09-22T03:06:11.004Z,92.70
2018-09-22T03:08:40.096Z,92.60
2018-09-22T03:11:09.350Z,92.70
2018-09-22T03:13:38.347Z,92.90
2018-09-22T03:16:07.381Z,93.00
2018-09-22T03:18:36.448Z,93.10
2018-09-22T03:21:05.463Z,93.10
2018-09-22T03:23:34.483Z,93.10
2018-09-22T03:26:03.861Z,93.10
2018-09-22T03:28:35.889Z,93.10
2018-09-22T03:31:11.903Z,93.00
2018-09-22T03:33:41.111Z,93.00
2018-09-22T03:36:10.161Z,93.30
2018-09-22T03:38:39.358Z,93.10
2018-09-22T03:41:08.596Z,93.30
2018-09-22T03:43:37.618Z,93.30
2018-09-22T03:46:06.910Z,93.40
2018-09-22T03:48:35.927Z,93.40
2018-09-22T03:51:05.257Z,93.30
2018-09-22T03:53:34.290Z,93.40
2018-09-22T03:56:03.318Z,93.70
2018-09-22T03:58:32.312Z,93.60
2018-09-22T04:01:01.364Z,93.70
2018-09-22T04:03:30.370Z,93.70
2018-09-22T04:05:59.373Z,93.90
2018-09-22T04:08:28.661Z,94.00
2018-09-22T04:10:57.674Z,94.20
2018-09-22T04:13:26.670Z,94.30
2018-09-22T04:15:55.689Z,94.40
2018-09-22T04:18:24.741Z,94.50
2018-09-22T04:20:53.778Z,94.40
2018-09-22T04:23:22.923Z,94.40
2018-09-22T04:25:51.917Z,94.40
2018-09-22T04:28:20.988Z,94.40
2018-09-22T04:30:50.052Z,94.40
2018-09-22T04:33:19.103Z,94.30
2018-09-22T04:35:48.282Z,94.30
2018-09-22T04:38:17.485Z,94.40
2018-09-22T04:40:46.864Z,94.40
2018-09-22T04:43:15.873Z,94.40
2018-09-22T04:45:44.903Z,94.30
2018-09-22T04:48:13.925Z,94.40
2018-09-22T04:50:43.005Z,94.40
2018-09-22T04:53:12.037Z,94.40
2018-09-22T04:55:41.025Z,94.30
2018-09-22T04:58:10.035Z,94.40
2018-09-22T05:00:39.000Z,94.40
2018-09-22T05:03:08.093Z,94.30
2018-09-22T05:05:37.107Z,94.30
2018-09-22T05:08:06.462Z,94.50
2018-09-22T05:10:35.562Z,94.40
2018-09-22T05:13:04.691Z,94.30
2018-09-22T05:15:33.740Z,94.40
2018-09-22T05:18:02.755Z,94.40
2018-09-22T05:20:31.807Z,94.40
2018-09-22T05:23:00.832Z,94.60
2018-09-22T05:25:29.930Z,94.70
2018-09-22T05:27:58.936Z,94.70
2018-09-22T05:30:28.217Z,94.90
2018-09-22T05:32:57.246Z,94.70
2018-09-22T05:35:26.307Z,94.90
2018-09-22T05:37:55.452Z,94.70
2018-09-22T05:40:26.824Z,94.80
2018-09-22T05:42:56.103Z,94.60
2018-09-22T05:45:25.127Z,94.70
2018-09-22T05:47:54.167Z,94.80
2018-09-22T05:50:23.238Z,94.70
2018-09-22T05:52:52.337Z,94.70
2018-09-22T05:55:21.356Z,94.60
2018-09-22T05:57:50.553Z,94.60
2018-09-22T06:00:19.614Z,94.40
2018-09-22T06:02:48.652Z,94.20
2018-09-22T06:05:17.649Z,94.30
2018-09-22T06:07:46.698Z,94.00
2018-09-22T06:10:15.836Z,93.90
2018-09-22T06:12:44.952Z,93.80
2018-09-22T06:15:13.978Z,93.70
2018-09-22T06:17:43.168Z,93.60
2018-09-22T06:20:12.234Z,93.80
2018-09-22T06:22:41.323Z,94.00
2018-09-22T06:25:10.349Z,93.70
2018-09-22T06:27:39.388Z,93.70
2018-09-22T06:30:08.770Z,93.80
2018-09-22T06:32:37.754Z,93.70
2018-09-22T06:35:06.802Z,93.70
2018-09-22T06:37:35.852Z,93.50
2018-09-22T06:40:04.976Z,93.50
2018-09-22T06:42:33.995Z,93.70
2018-09-22T06:45:03.540Z,93.70
2018-09-22T06:47:32.627Z,93.70
2018-09-22T06:50:01.759Z,93.60
2018-09-22T06:52:30.803Z,93.80
2018-09-22T06:54:59.879Z,93.80
2018-09-22T06:57:29.291Z,94.30
2018-09-22T06:59:58.332Z,93.90
2018-09-22T07:02:27.365Z,93.90
2018-09-22T07:04:56.375Z,94.00
2018-09-22T07:07:25.593Z,94.00
2018-09-22T07:09:54.598Z,94.00
2018-09-22T07:12:23.649Z,93.90
2018-09-22T07:14:52.648Z,93.70
2018-09-22T07:17:21.702Z,93.60
2018-09-22T07:19:50.770Z,93.50
2018-09-22T07:22:25.313Z,93.30
2018-09-22T07:24:54.518Z,93.40
2018-09-22T07:27:23.663Z,93.00
2018-09-22T07:29:52.769Z,93.10
2018-09-22T07:32:21.846Z,93.20
2018-09-22T07:34:51.077Z,93.10
2018-09-22T07:37:20.108Z,92.90
2018-09-22T07:39:49.164Z,92.40
2018-09-22T07:42:18.198Z,92.10
2018-09-22T07:44:47.295Z,91.60
2018-09-22T07:47:16.581Z,91.40
2018-09-22T07:49:46.049Z,91.20
2018-09-22T07:52:15.342Z,91.20
2018-09-22T07:54:44.328Z,91.00
2018-09-22T07:57:13.422Z,90.50
2018-09-22T07:59:43.232Z,90.10
2018-09-22T08:02:12.403Z,90.50
2018-09-22T08:04:41.433Z,90.30
2018-09-22T08:07:10.574Z,90.00
2018-09-22T08:09:39.613Z,90.10
2018-09-22T08:12:08.751Z,90.60
2018-09-22T08:14:37.924Z,90.50
2018-09-22T08:17:07.005Z,90.60
2018-09-22T08:19:36.488Z,91.10
2018-09-22T08:22:05.504Z,91.10
2018-09-22T08:24:34.501Z,91.10
2018-09-22T08:27:03.598Z,91.30
2018-09-22T08:29:32.694Z,91.00
2018-09-22T08:32:01.818Z,90.50
2018-09-22T08:34:31.257Z,90.40
2018-09-22T08:37:00.426Z,90.90
2018-09-22T08:39:31.703Z,90.90
2018-09-22T08:42:01.184Z,90.50
2018-09-22T08:44:30.203Z,90.80
2018-09-22T08:46:59.248Z,90.90
2018-09-22T08:49:28.367Z,90.50
2018-09-22T08:51:57.832Z,90.80
2018-09-22T08:54:26.899Z,90.30
2018-09-22T08:56:55.909Z,90.00
2018-09-22T08:59:24.945Z,89.00
2018-09-22T09:01:54.338Z,89.00
2018-09-22T09:04:23.355Z,88.60
2018-09-22T09:06:52.377Z,88.20
2018-09-22T09:09:21.477Z,88.40
2018-09-22T09:11:50.612Z,87.90
2018-09-22T09:14:19.880Z,88.40
2018-09-22T09:16:49.057Z,87.40
2018-09-22T09:19:18.058Z,87.60
2018-09-22T09:21:47.442Z,87.30
2018-09-22T09:24:16.481Z,87.80
2018-09-22T09:26:45.523Z,87.70
2018-09-22T09:29:14.619Z,87.80
2018-09-22T09:31:43.763Z,87.00
2018-09-22T09:34:12.809Z,86.90
2018-09-22T09:36:41.857Z,86.60
2018-09-22T09:39:10.883Z,87.00
2018-09-22T09:41:39.918Z,86.90
2018-09-22T09:44:09.185Z,85.20
2018-09-22T09:46:38.360Z,85.50
2018-09-22T09:49:07.389Z,84.90
2018-09-22T09:51:36.412Z,84.70
2018-09-22T09:54:05.976Z,84.20
2018-09-22T09:56:35.053Z,84.50
2018-09-22T09:59:04.470Z,84.00
2018-09-22T10:01:33.506Z,82.00
2018-09-22T10:04:02.544Z,82.10
2018-09-22T10:06:31.551Z,82.60
2018-09-22T10:09:00.589Z,83.00
2018-09-22T10:11:29.602Z,82.30
2018-09-22T10:13:58.654Z,81.70
2018-09-22T10:16:27.875Z,81.00
2018-09-22T10:18:56.919Z,81.40
2018-09-22T10:21:26.007Z,79.70
2018-09-22T10:23:55.100Z,77.90
2018-09-22T10:26:24.273Z,77.80
2018-09-22T10:28:53.341Z,77.80
2018-09-22T10:31:22.620Z,78.90
2018-09-22T10:33:51.719Z,78.50
2018-09-22T10:36:20.709Z,77.30
2018-09-22T10:38:49.968Z,76.70
2018-09-22T10:41:19.216Z,75.80
2018-09-22T10:43:48.456Z,76.60
2018-09-22T10:46:17.534Z,73.60
2018-09-22T10:48:46.646Z,72.60
2018-09-22T10:51:15.705Z,72.60
2018-09-22T10:53:44.950Z,71.10
2018-09-22T10:56:13.986Z,71.30
2018-09-22T10:58:43.003Z,68.40
2018-09-22T11:01:12.046Z,65.80
2018-09-22T11:03:41.071Z,61.70
2018-09-22T11:06:10.097Z,61.70
2018-09-22T11:08:39.183Z,60.30
2018-09-22T11:11:08.219Z,59.90
2018-09-22T11:13:37.269Z,59.60
2018-09-22T11:16:06.821Z,63.20
2018-09-22T11:18:35.908Z,65.20
2018-09-22T11:21:05.141Z,64.20
2018-09-22T11:23:34.199Z,67.30
2018-09-22T11:26:03.231Z,67.30
2018-09-22T11:28:32.290Z,66.30
2018-09-22T11:31:01.354Z,62.70
2018-09-22T11:33:30.412Z,57.90
2018-09-22T11:35:59.604Z,56.20
2018-09-22T11:38:28.701Z,56.20
2018-09-22T11:40:57.877Z,57.30
2018-09-22T11:43:26.903Z,59.90
2018-09-22T11:45:55.907Z,62.10
2018-09-22T11:48:24.948Z,62.30
2018-09-22T11:50:54.023Z,63.60
2018-09-22T11:53:23.030Z,62.80
2018-09-22T11:55:52.128Z,62.70
2018-09-22T11:58:21.212Z,63.50
2018-09-22T12:00:50.255Z,64.90
2018-09-22T12:03:19.313Z,65.60
2018-09-22T12:05:48.412Z,64.20
2018-09-22T12:08:17.584Z,64.70
2018-09-22T12:10:46.614Z,65.30
2018-09-22T12:13:15.643Z,66.00
2018-09-22T12:15:44.661Z,65.90
2018-09-22T12:18:13.705Z,64.90
2018-09-22T12:20:42.827Z,63.00
2018-09-22T12:23:12.051Z,63.40
2018-09-22T12:25:41.064Z,62.10
2018-09-22T12:28:10.110Z,61.10
2018-09-22T12:30:39.182Z,61.70
2018-09-22T12:33:08.289Z,61.60
2018-09-22T12:35:37.414Z,61.30
2018-09-22T12:38:06.910Z,61.40
2018-09-22T12:40:35.917Z,61.70
2018-09-22T12:43:05.033Z,61.80
2018-09-22T12:45:34.076Z,60.00
2018-09-22T12:48:03.095Z,60.30
2018-09-22T12:50:32.136Z,59.90
2018-09-22T12:53:01.143Z,60.00
2018-09-22T12:55:30.169Z,60.50
2018-09-22T12:57:59.169Z,62.30
2018-09-22T13:00:28.205Z,63.60
2018-09-22T13:02:57.234Z,63.70
2018-09-22T13:05:26.277Z,64.00
2018-09-22T13:07:55.325Z,62.70
2018-09-22T13:10:24.363Z,63.10
2018-09-22T13:12:53.402Z,63.00
2018-09-22T13:15:22.509Z,63.30
2018-09-22T13:17:51.630Z,63.20
2018-09-22T13:20:20.755Z,62.50
2018-09-22T13:22:49.925Z,62.60
2018-09-22T13:25:19.095Z,63.10
2018-09-22T13:27:48.392Z,63.20
2018-09-22T13:30:17.444Z,61.80
2018-09-22T13:32:46.720Z,59.10
2018-09-22T13:35:15.705Z,59.80
2018-09-22T13:37:44.785Z,59.90
2018-09-22T13:40:15.503Z,60.30
2018-09-22T13:42:44.510Z,61.00
2018-09-22T13:45:13.545Z,61.10
2018-09-22T13:47:42.783Z,61.30
2018-09-22T13:50:11.943Z,61.90
2018-09-22T13:52:40.979Z,61.90
2018-09-22T13:55:10.005Z,62.70
2018-09-22T13:57:39.005Z,63.30
2018-09-22T14:00:08.055Z,61.70
2018-09-22T14:02:37.101Z,62.10
2018-09-22T14:05:06.150Z,62.40
2018-09-22T14:07:35.432Z,63.50
2018-09-22T14:10:04.951Z,64.60
2018-09-22T14:12:34.135Z,63.50
2018-09-22T14:15:03.317Z,63.20
2018-09-22T14:17:32.390Z,64.00
2018-09-22T14:20:01.584Z,64.80
2018-09-22T14:22:30.588Z,65.40
2018-09-22T14:24:59.630Z,65.10
2018-09-22T14:27:28.730Z,64.60
2018-09-22T14:29:57.773Z,63.60
2018-09-22T14:32:27.110Z,64.00
2018-09-22T14:34:56.144Z,64.20
2018-09-22T14:37:25.181Z,64.40
2018-09-22T14:39:54.255Z,64.50
2018-09-22T14:42:23.363Z,64.40
2018-09-22T14:44:52.379Z,65.20
2018-09-22T14:47:21.656Z,65.20
2018-09-22T14:49:50.709Z,65.70
2018-09-22T14:52:19.752Z,66.00
2018-09-22T14:54:49.018Z,66.30
2018-09-22T14:57:18.152Z,66.80
2018-09-22T14:59:47.196Z,67.10
2018-09-22T15:02:16.268Z,67.80
2018-09-22T15:04:45.352Z,68.30
2018-09-22T15:07:14.330Z,68.20
2018-09-22T15:09:43.401Z,68.00
2018-09-22T15:12:12.733Z,68.50
2018-09-22T15:14:41.801Z,69.20
2018-09-22T15:17:10.856Z,69.60
2018-09-22T15:19:39.862Z,69.90
2018-09-22T15:22:08.895Z,70.00
2018-09-22T15:24:38.081Z,69.50
2018-09-22T15:27:07.552Z,70.00
2018-09-22T15:29:36.584Z,69.40
2018-09-22T15:32:05.633Z,69.80
2018-09-22T15:34:34.646Z,69.20
2018-09-22T15:37:04.068Z,67.90
2018-09-22T15:39:33.241Z,67.30
2018-09-22T15:42:02.249Z,67.70
2018-09-22T15:44:31.264Z,68.00
2018-09-22T15:47:00.316Z,67.40
2018-09-22T15:49:29.535Z,67.00
2018-09-22T15:51:58.572Z,67.20
2018-09-22T15:54:27.660Z,68.20
2018-09-22T15:56:56.663Z,68.10
2018-09-22T15:59:25.673Z,68.30
2018-09-22T16:01:54.985Z,68.60
2018-09-22T16:04:24.084Z,69.60
2018-09-22T16:06:53.214Z,69.70
2018-09-22T16:09:22.279Z,70.10
2018-09-22T16:11:51.335Z,70.40
2018-09-22T16:14:20.408Z,71.10
2018-09-22T16:16:49.412Z,71.60
2018-09-22T16:19:18.543Z,72.30
2018-09-22T16:21:47.894Z,74.50
2018-09-22T16:24:17.123Z,75.60
2018-09-22T16:26:46.162Z,73.10
2018-09-22T16:29:15.256Z,72.20
2018-09-22T16:31:44.278Z,73.00
2018-09-22T16:34:13.502Z,73.60
2018-09-22T16:36:42.522Z,73.30
2018-09-22T16:39:12.197Z,74.40
2018-09-22T16:41:41.495Z,74.50
2018-09-22T16:44:10.511Z,76.10
2018-09-22T16:46:39.566Z,77.40
2018-09-22T16:49:08.605Z,75.70
2018-09-22T16:51:37.816Z,76.90
2018-09-22T16:56:42.153Z,78.20
2018-09-22T16:59:11.264Z,80.00
2018-09-22T17:01:40.260Z,80.20
2018-09-22T17:04:09.273Z,80.80
2018-09-22T17:06:38.609Z,83.00
2018-09-22T17:09:08.896Z,87.80
2018-09-22T17:11:37.899Z,86.90
2018-09-22T17:14:07.015Z,86.10
2018-09-22T17:16:36.087Z,88.30
2018-09-22T17:19:05.303Z,89.20
2018-09-22T17:21:34.358Z,91.20
2018-09-22T17:24:03.435Z,92.20
2018-09-22T17:26:32.471Z,94.90
2018-09-22T17:29:01.530Z,94.90
2018-09-22T17:31:30.811Z,95.80
2018-09-22T17:33:59.878Z,98.20
2018-09-22T17:36:28.972Z,97.70
2018-09-22T17:38:58.608Z,98.40
2018-09-22T17:41:27.683Z,98.40
2018-09-22T17:43:56.795Z,99.10
2018-09-22T17:46:25.840Z,97.50
2018-09-22T17:48:55.115Z,99.30
2018-09-22T17:51:24.158Z,98.20
2018-09-22T17:53:53.177Z,98.40
2018-09-22T17:56:22.197Z,98.70
2018-09-22T17:58:51.229Z,99.90
2018-09-22T18:01:20.246Z,99.90
2018-09-22T18:03:49.249Z,99.90
2018-09-22T18:06:18.259Z,99.90
2018-09-22T18:08:47.305Z,99.90
2018-09-22T18:11:16.427Z,99.90
2018-09-22T18:13:45.501Z,99.90
2018-09-22T18:16:14.529Z,99.90
2018-09-22T18:18:43.549Z,99.90
2018-09-22T18:21:12.601Z,99.90
2018-09-22T18:23:41.760Z,99.90
2018-09-22T18:26:10.821Z,99.90
2018-09-22T18:28:39.851Z,99.90
2018-09-22T18:31:08.896Z,99.90
2018-09-22T18:33:37.938Z,99.90
2018-09-22T18:36:06.986Z,99.90
2018-09-22T18:38:35.991Z,99.90
2018-09-22T18:41:05.000Z,99.90
2018-09-22T18:43:34.055Z,99.90
2018-09-22T18:46:03.106Z,99.90
2018-09-22T18:48:32.136Z,99.90
2018-09-22T18:51:01.167Z,99.90
2018-09-22T18:53:30.149Z,99.90
2018-09-22T18:55:59.316Z,99.90
2018-09-22T18:58:28.360Z,99.90
2018-09-22T19:00:57.569Z,99.90
2018-09-22T19:03:26.640Z,99.90
2018-09-22T19:05:55.732Z,99.90
2018-09-22T19:08:24.893Z,99.90
2018-09-22T19:10:53.935Z,99.90
2018-09-22T19:13:26.545Z,99.90
2018-09-22T19:15:58.205Z,99.90
2018-09-22T19:18:57.798Z,99.90
2018-09-22T19:21:30.564Z,99.90
2018-09-22T19:24:02.767Z,99.90
2018-09-22T19:26:40.652Z,99.90
2018-09-22T19:29:14.484Z,99.90
2018-09-22T19:31:47.362Z,99.90
2018-09-22T19:34:26.501Z,99.90
2018-09-22T19:36:58.835Z,99.90
2018-09-22T19:39:33.186Z,99.90
2018-09-22T19:44:13.024Z,99.90
2018-09-22T19:46:46.520Z,99.90
2018-09-22T19:49:20.174Z,99.90
2018-09-22T19:51:52.706Z,99.90
2018-09-22T19:54:21.816Z,99.90
2018-09-22T19:56:50.820Z,99.90
2018-09-22T19:59:19.867Z,99.90
2018-09-22T20:01:48.907Z,99.90
2018-09-22T20:04:17.913Z,99.90
2018-09-22T20:06:47.174Z,99.90
2018-09-22T20:09:16.214Z,99.90
2018-09-22T20:11:45.297Z,99.90
2018-09-22T20:14:14.526Z,99.90
2018-09-22T20:16:43.577Z,99.90
2018-09-22T20:19:12.597Z,99.90
2018-09-22T20:21:41.621Z,99.90
2018-09-22T20:24:10.697Z,99.90
2018-09-22T20:26:39.703Z,99.90
2018-09-22T20:29:08.716Z,99.90
2018-09-22T20:31:37.822Z,99.90
2018-09-22T20:34:06.983Z,99.90
2018-09-22T20:36:36.036Z,99.90
2018-09-22T20:39:07.962Z,99.90
2018-09-22T20:41:36.985Z,99.90
2018-09-22T20:44:06.026Z,99.90
2018-09-22T20:46:35.159Z,99.90
2018-09-22T20:49:04.562Z,99.90
2018-09-22T20:51:33.635Z,99.90
2018-09-22T20:54:02.752Z,99.90
2018-09-22T20:56:31.940Z,99.90
2018-09-22T20:59:00.980Z,99.90
2018-09-22T21:01:30.068Z,99.90
2018-09-22T21:03:59.307Z,99.90
2018-09-22T21:06:28.422Z,99.90
2018-09-22T21:08:57.426Z,99.90
2018-09-22T21:11:26.633Z,99.90
2018-09-22T21:13:55.684Z,99.90
2018-09-22T21:16:24.753Z,99.90
2018-09-22T21:18:53.791Z,99.90
2018-09-22T21:21:22.975Z,99.90
2018-09-22T21:23:51.981Z,99.90
2018-09-22T21:26:20.991Z,99.90
2018-09-22T21:28:50.059Z,99.90
2018-09-22T21:31:19.155Z,99.90
2018-09-22T21:33:48.412Z,99.90
2018-09-22T21:36:17.460Z,99.90
2018-09-22T21:38:46.483Z,99.90
2018-09-22T21:41:15.486Z,99.90
2018-09-22T21:43:44.547Z,99.90
2018-09-22T21:46:13.595Z,99.90
2018-09-22T21:48:42.702Z,99.90
2018-09-22T21:51:11.731Z,99.90
2018-09-22T21:53:40.750Z,99.90
2018-09-22T21:56:09.844Z,99.90
2018-09-22T21:58:38.883Z,99.90
2018-09-22T22:01:13.595Z,99.90
2018-09-22T22:03:42.598Z,99.90
2018-09-22T22:06:11.669Z,99.90
2018-09-22T22:08:40.717Z,99.90
2018-09-22T22:11:09.753Z,99.90
2018-09-22T22:13:38.753Z,99.90
2018-09-22T22:16:07.824Z,99.90
2018-09-22T22:18:36.894Z,99.90
2018-09-22T22:21:05.885Z,99.90
2018-09-22T22:23:34.965Z,99.90
2018-09-22T22:26:03.962Z,99.90
2018-09-22T22:28:32.996Z,99.90
2018-09-22T22:31:01.998Z,99.90
2018-09-22T22:33:31.025Z,99.90
2018-09-22T22:36:00.072Z,99.90
2018-09-22T22:38:29.076Z,99.90
2018-09-22T22:40:58.115Z,99.90
2018-09-22T22:43:27.438Z,99.90
2018-09-22T22:45:56.455Z,99.90
2018-09-22T22:48:25.571Z,99.90
2018-09-22T22:50:54.664Z,99.90
2018-09-22T22:53:23.772Z,99.90
2018-09-22T22:55:52.867Z,99.90
2018-09-22T22:58:22.106Z,99.90
2018-09-22T23:00:51.254Z,99.90
2018-09-22T23:03:20.299Z,99.90
2018-09-22T23:05:49.405Z,99.90
2018-09-22T23:08:18.604Z,99.90
2018-09-22T23:10:48.008Z,99.90
2018-09-22T23:13:16.999Z,99.90
2018-09-22T23:15:46.056Z,99.90
2018-09-22T23:18:15.112Z,99.90
2018-09-22T23:20:44.111Z,99.90
2018-09-22T23:23:13.237Z,99.90
2018-09-22T23:25:42.344Z,99.90
2018-09-22T23:28:11.359Z,99.90
2018-09-22T23:30:40.414Z,99.90
2018-09-22T23:33:09.583Z,99.90
2018-09-22T23:35:38.641Z,99.90
2018-09-22T23:38:07.620Z,99.90
2018-09-22T23:40:36.668Z,99.90
2018-09-22T23:43:05.662Z,99.90
2018-09-22T23:45:34.690Z,99.90
2018-09-22T23:48:03.717Z,99.90
2018-09-22T23:50:32.836Z,99.90
2018-09-22T23:53:01.910Z,99.90
2018-09-22T23:55:31.006Z,99.90
2018-09-22T23:58:00.134Z,99.90
